createdAt,value
2018-04-12T00:02:07.894Z,96653.48
2018-04-12T00:04:35.374Z,96650.17
2018-04-12T00:07:02.927Z,96650.80
2018-04-12T00:09:30.424Z,96647.22
2018-04-12T00:11:57.927Z,96640.83
2018-04-12T00:14:25.858Z,96638.22
2018-04-12T00:16:53.357Z,96632.16
2018-04-12T00:19:20.870Z,96620.45
2018-04-12T00:21:48.478Z,96621.73
2018-04-12T00:24:16.030Z,96620.28
2018-04-12T00:26:43.556Z,96617.42
2018-04-12T00:29:11.096Z,96618.44
2018-04-12T00:31:38.661Z,96609.84
2018-04-12T00:34:11.859Z,96609.16
2018-04-12T00:36:40.015Z,96602.73
2018-04-12T00:39:08.367Z,96595.56
2018-04-12T00:41:43.719Z,96591.46
2018-04-12T00:44:11.567Z,96582.55
2018-04-12T00:46:50.356Z,96570.26
2018-04-12T00:49:18.260Z,96566.14
2018-04-12T00:51:54.710Z,96559.17
2018-04-12T00:54:26.574Z,96551.98
2018-04-12T00:56:54.161Z,96550.16
2018-04-12T00:59:21.722Z,96546.81
2018-04-12T01:01:52.401Z,96534.91
2018-04-12T01:04:28.429Z,96536.28
2018-04-12T01:06:56.661Z,96517.91
2018-04-12T01:09:24.469Z,96515.38
2018-04-12T01:11:51.960Z,96509.48
2018-04-12T01:14:19.457Z,96514.91
2018-04-12T01:16:46.943Z,96514.66
2018-04-12T01:19:14.418Z,96530.11
2018-04-12T01:21:41.968Z,96525.86
2018-04-12T01:24:09.457Z,96531.27
2018-04-12T01:26:37.111Z,96523.70
2018-04-12T01:29:04.602Z,96529.64
2018-04-12T01:31:32.092Z,96527.54
2018-04-12T01:33:59.574Z,96536.25
2018-04-12T01:36:27.037Z,96540.13
2018-04-12T01:38:54.507Z,96537.84
2018-04-12T01:41:22.001Z,96545.05
2018-04-12T01:43:49.479Z,96549.15
2018-04-12T01:46:16.999Z,96541.18
2018-04-12T01:48:44.482Z,96544.14
2018-04-12T01:51:12.082Z,96546.08
2018-04-12T01:53:39.559Z,96548.03
2018-04-12T01:56:07.057Z,96549.39
2018-04-12T01:58:34.556Z,96547.91
2018-04-12T02:01:02.061Z,96549.88
2018-04-12T02:03:29.688Z,96552.32
2018-04-12T02:05:57.298Z,96548.98
2018-04-12T02:08:24.822Z,96546.94
2018-04-12T02:10:52.325Z,96547.56
2018-04-12T02:13:19.923Z,96542.49
2018-04-12T02:15:47.425Z,96532.04
2018-04-12T02:18:14.910Z,96535.51
2018-04-12T02:20:42.414Z,96531.33
2018-04-12T02:23:09.893Z,96529.72
2018-04-12T02:25:37.555Z,96512.78
2018-04-12T02:28:05.031Z,96506.98
2018-04-12T02:30:32.520Z,96505.35
2018-04-12T02:33:00.194Z,96504.87
2018-04-12T02:35:27.688Z,96502.84
2018-04-12T02:37:55.234Z,96490.81
2018-04-12T02:40:22.724Z,96491.73
2018-04-12T02:42:50.241Z,96489.80
2018-04-12T02:45:17.938Z,96492.71
2018-04-12T02:47:45.462Z,96489.49
2018-04-12T02:50:12.965Z,96488.19
2018-04-12T02:52:40.521Z,96485.44
2018-04-12T02:55:08.016Z,96483.11
2018-04-12T02:57:35.641Z,96487.39
2018-04-12T03:00:03.187Z,96487.05
2018-04-12T03:02:30.673Z,96485.48
2018-04-12T03:04:58.425Z,96480.34
2018-04-12T03:07:25.902Z,96477.30
2018-04-12T03:09:53.564Z,96483.05
2018-04-12T03:12:21.037Z,96479.17
2018-04-12T03:14:48.593Z,96469.09
2018-04-12T03:17:16.092Z,96468.61
2018-04-12T03:19:43.573Z,96463.46
2018-04-12T03:22:11.584Z,96464.09
2018-04-12T03:24:39.176Z,96462.24
2018-04-12T03:27:06.740Z,96464.05
2018-04-12T03:29:34.246Z,96467.97
2018-04-12T03:32:01.751Z,96479.19
2018-04-12T03:34:29.233Z,96489.76
2018-04-12T03:36:56.733Z,96493.05
2018-04-12T03:39:24.226Z,96501.31
2018-04-12T03:41:51.725Z,96499.16
2018-04-12T03:44:19.274Z,96503.34
2018-04-12T03:46:46.814Z,96496.38
2018-04-12T03:49:14.308Z,96505.30
2018-04-12T03:51:41.835Z,96506.14
2018-04-12T03:54:09.354Z,96503.02
2018-04-12T03:56:36.862Z,96501.31
2018-04-12T03:59:04.400Z,96494.59
2018-04-12T04:01:31.914Z,96500.34
2018-04-12T04:03:59.548Z,96498.44
2018-04-12T04:06:27.038Z,96496.33
2018-04-12T04:08:54.754Z,96501.06
2018-04-12T04:11:22.230Z,96513.79
2018-04-12T04:13:49.711Z,96518.18
2018-04-12T04:16:28.984Z,96527.19
2018-04-12T04:19:09.181Z,96522.47
2018-04-12T04:21:36.685Z,96520.85
2018-04-12T04:24:04.245Z,96518.87
2018-04-12T04:26:31.721Z,96512.38
2018-04-12T04:28:59.206Z,96501.09
2018-04-12T04:31:26.699Z,96504.41
2018-04-12T04:33:54.185Z,96509.14
2018-04-12T04:36:21.711Z,96513.23
2018-04-12T04:38:49.230Z,96519.20
2018-04-12T04:41:16.711Z,96525.04
2018-04-12T04:43:44.198Z,96524.66
2018-04-12T04:46:12.054Z,96520.69
2018-04-12T04:48:39.701Z,96528.82
2018-04-12T04:51:07.223Z,96529.89
2018-04-12T04:53:34.853Z,96535.22
2018-04-12T04:56:02.338Z,96526.73
2018-04-12T04:58:29.828Z,96524.70
2018-04-12T05:00:57.329Z,96524.64
2018-04-12T05:03:24.942Z,96522.19
2018-04-12T05:05:52.440Z,96522.44
2018-04-12T05:08:19.956Z,96520.79
2018-04-12T05:10:47.440Z,96521.00
2018-04-12T05:13:14.994Z,96519.30
2018-04-12T05:15:42.593Z,96520.96
2018-04-12T05:18:10.073Z,96529.86
2018-04-12T05:20:37.571Z,96536.92
2018-04-12T05:23:05.183Z,96537.78
2018-04-12T05:25:32.767Z,96552.42
2018-04-12T05:28:00.350Z,96550.14
2018-04-12T05:30:27.924Z,96561.64
2018-04-12T05:32:55.418Z,96554.11
2018-04-12T05:35:22.921Z,96556.69
2018-04-12T05:37:50.434Z,96561.55
2018-04-12T05:40:17.930Z,96563.14
2018-04-12T05:42:45.420Z,96560.53
2018-04-12T05:45:12.977Z,96564.52
2018-04-12T05:47:40.727Z,96559.20
2018-04-12T05:50:08.256Z,96564.89
2018-04-12T05:52:35.793Z,96559.48
2018-04-12T05:55:03.466Z,96558.84
2018-04-12T05:57:30.969Z,96568.78
2018-04-12T05:59:58.487Z,96566.00
2018-04-12T06:02:25.998Z,96573.76
2018-04-12T06:04:53.498Z,96568.41
2018-04-12T06:07:21.025Z,96568.83
2018-04-12T06:09:48.516Z,96566.87
2018-04-12T06:12:16.009Z,96561.78
2018-04-12T06:14:43.495Z,96556.53
2018-04-12T06:17:11.183Z,96559.40
2018-04-12T06:19:38.681Z,96563.06
2018-04-12T06:22:06.879Z,96566.80
2018-04-12T06:24:34.377Z,96565.83
2018-04-12T06:27:01.913Z,96575.96
2018-04-12T06:29:29.406Z,96577.29
2018-04-12T06:31:56.914Z,96567.61
2018-04-12T06:34:24.568Z,96567.02
2018-04-12T06:36:52.056Z,96558.48
2018-04-12T06:39:19.629Z,96557.89
2018-04-12T06:41:47.124Z,96544.99
2018-04-12T06:44:14.685Z,96539.52
2018-04-12T06:46:42.286Z,96533.69
2018-04-12T06:49:09.785Z,96526.28
2018-04-12T06:51:37.283Z,96522.12
2018-04-12T06:54:04.864Z,96524.44
2018-04-12T06:56:32.402Z,96517.15
2018-04-12T06:58:59.979Z,96521.15
2018-04-12T07:01:27.550Z,96518.77
2018-04-12T07:03:55.074Z,96506.98
2018-04-12T07:06:22.573Z,96513.73
2018-04-12T07:08:50.117Z,96518.30
2018-04-12T07:11:17.676Z,96514.42
2018-04-12T07:13:45.170Z,96506.97
2018-04-12T07:16:12.776Z,96502.61
2018-04-12T07:18:40.307Z,96501.70
2018-04-12T07:21:07.799Z,96498.19
2018-04-12T07:23:35.383Z,96512.41
2018-04-12T07:26:02.922Z,96506.42
2018-04-12T07:28:30.491Z,96513.57
2018-04-12T07:30:57.980Z,96519.80
2018-04-12T07:33:25.478Z,96523.50
2018-04-12T07:35:52.989Z,96541.44
2018-04-12T07:38:20.559Z,96553.72
2018-04-12T07:40:48.056Z,96558.07
2018-04-12T07:43:15.606Z,96563.39
2018-04-12T07:45:43.173Z,96577.05
2018-04-12T07:48:10.694Z,96578.27
2018-04-12T07:50:38.218Z,96585.41
2018-04-12T07:53:05.888Z,96571.58
2018-04-12T07:55:33.423Z,96574.06
2018-04-12T07:58:01.037Z,96570.77
2018-04-12T08:00:28.508Z,96582.55
2018-04-12T08:02:56.016Z,96602.83
2018-04-12T08:05:23.512Z,96613.25
2018-04-12T08:07:50.979Z,96624.03
2018-04-12T08:10:18.491Z,96620.30
2018-04-12T08:12:46.003Z,96621.51
2018-04-12T08:15:13.499Z,96622.52
2018-04-12T08:17:40.988Z,96636.97
2018-04-12T08:20:08.522Z,96637.92
2018-04-12T08:22:36.019Z,96646.17
2018-04-12T08:25:03.597Z,96650.03
2018-04-12T08:27:31.086Z,96643.29
2018-04-12T08:29:58.596Z,96643.57
2018-04-12T08:32:26.386Z,96643.88
2018-04-12T08:34:53.873Z,96638.34
2018-04-12T08:37:21.376Z,96634.77
2018-04-12T08:39:48.879Z,96635.65
2018-04-12T08:42:16.362Z,96642.47
2018-04-12T08:44:43.932Z,96652.42
2018-04-12T08:47:11.615Z,96658.56
2018-04-12T08:49:39.148Z,96670.94
2018-04-12T08:52:06.627Z,96689.95
2018-04-12T08:54:34.244Z,96689.05
2018-04-12T08:57:01.755Z,96695.34
2018-04-12T08:59:29.247Z,96680.46
2018-04-12T09:01:56.736Z,96660.23
2018-04-12T09:04:24.399Z,96653.78
2018-04-12T09:06:51.977Z,96661.96
2018-04-12T09:09:19.468Z,96671.54
2018-04-12T09:11:46.947Z,96669.53
2018-04-12T09:14:14.438Z,96671.49
2018-04-12T09:16:41.957Z,96688.33
2018-04-12T09:19:09.486Z,96702.48
2018-04-12T09:21:37.058Z,96716.59
2018-04-12T09:24:04.577Z,96725.06
2018-04-12T09:26:32.056Z,96709.45
2018-04-12T09:28:59.563Z,96709.72
2018-04-12T09:31:27.031Z,96706.07
2018-04-12T09:33:54.712Z,96702.61
2018-04-12T09:36:22.193Z,96698.81
2018-04-12T09:38:49.690Z,96693.86
2018-04-12T09:41:17.210Z,96696.71
2018-04-12T09:43:44.747Z,96697.33
2018-04-12T09:46:12.246Z,96699.27
2018-04-12T09:48:39.747Z,96697.14
2018-04-12T09:51:07.239Z,96703.88
2018-04-12T09:53:34.966Z,96702.35
2018-04-12T09:56:02.449Z,96693.64
2018-04-12T09:58:30.136Z,96694.73
2018-04-12T10:00:57.628Z,96707.35
2018-04-12T10:03:25.127Z,96716.14
2018-04-12T10:05:58.333Z,96714.91
2018-04-12T10:08:28.448Z,96713.89
2018-04-12T10:10:55.943Z,96713.44
2018-04-12T10:13:23.437Z,96714.56
2018-04-12T10:15:50.937Z,96707.65
2018-04-12T10:18:18.545Z,96708.48
2018-04-12T10:20:46.029Z,96726.50
2018-04-12T10:23:13.507Z,96729.84
2018-04-12T10:25:41.004Z,96726.36
2018-04-12T10:28:08.527Z,96722.42
2018-04-12T10:30:36.020Z,96718.49
2018-04-12T10:33:03.519Z,96722.85
2018-04-12T10:35:31.145Z,96723.87
2018-04-12T10:37:58.711Z,96722.69
2018-04-12T10:40:26.371Z,96714.19
2018-04-12T10:42:53.860Z,96715.40
2018-04-12T10:45:21.373Z,96703.12
2018-04-12T10:47:48.860Z,96696.58
2018-04-12T10:50:16.333Z,96696.92
2018-04-12T10:52:43.805Z,96695.09
2018-04-12T10:55:11.275Z,96706.67
2018-04-12T10:57:38.756Z,96712.78
2018-04-12T11:00:06.248Z,96705.00
2018-04-12T11:02:33.749Z,96703.88
2018-04-12T11:05:01.397Z,96707.22
2018-04-12T11:07:28.845Z,96714.71
2018-04-12T11:09:56.406Z,96731.13
2018-04-12T11:12:23.889Z,96715.67
2018-04-12T11:14:51.627Z,96715.02
2018-04-12T11:17:19.153Z,96712.62
2018-04-12T11:19:46.747Z,96717.02
2018-04-12T11:22:14.241Z,96711.18
2018-04-12T11:24:41.760Z,96706.43
2018-04-12T11:27:09.365Z,96703.05
2018-04-12T11:29:36.856Z,96709.48
2018-04-12T11:32:04.342Z,96709.89
2018-04-12T11:34:32.015Z,96707.70
2018-04-12T11:36:59.534Z,96710.42
2018-04-12T11:39:27.157Z,96705.45
2018-04-12T11:41:54.653Z,96707.68
2018-04-12T11:44:22.258Z,96703.27
2018-04-12T11:46:49.791Z,96704.47
2018-04-12T11:49:17.287Z,96711.27
2018-04-12T11:51:44.893Z,96711.16
2018-04-12T11:54:12.393Z,96705.88
2018-04-12T11:56:39.914Z,96709.66
2018-04-12T11:59:07.400Z,96710.98
2018-04-12T12:01:34.908Z,96727.95
2018-04-12T12:04:02.391Z,96733.41
2018-04-12T12:06:29.950Z,96732.80
2018-04-12T12:08:57.447Z,96732.76
2018-04-12T12:11:24.930Z,96727.95
2018-04-12T12:13:52.411Z,96729.98
2018-04-12T12:16:19.919Z,96730.50
2018-04-12T12:18:47.397Z,96735.97
2018-04-12T12:21:14.883Z,96730.80
2018-04-12T12:23:42.392Z,96726.66
2018-04-12T12:26:09.899Z,96741.02
2018-04-12T12:28:37.385Z,96736.23
2018-04-12T12:31:04.869Z,96730.94
2018-04-12T12:33:32.626Z,96740.36
2018-04-12T12:36:00.122Z,96742.13
2018-04-12T12:38:27.854Z,96739.69
2018-04-12T12:40:55.344Z,96742.16
2018-04-12T12:43:22.846Z,96745.09
2018-04-12T12:45:50.338Z,96750.96
2018-04-12T12:48:17.903Z,96743.85
2018-04-12T12:50:45.527Z,96741.10
2018-04-12T12:53:12.979Z,96743.59
2018-04-12T12:55:40.467Z,96743.12
2018-04-12T12:58:07.945Z,96750.00
2018-04-12T13:00:35.699Z,96750.86
2018-04-12T13:03:03.323Z,96754.35
2018-04-12T13:05:31.144Z,96742.03
2018-04-12T13:07:58.717Z,96747.73
2018-04-12T13:10:26.299Z,96742.83
2018-04-12T13:12:53.771Z,96740.88
2018-04-12T13:15:21.242Z,96737.66
2018-04-12T13:17:48.722Z,96744.49
2018-04-12T13:20:16.189Z,96734.80
2018-04-12T13:22:43.711Z,96733.71
2018-04-12T13:25:11.177Z,96733.98
2018-04-12T13:27:38.663Z,96730.47
2018-04-12T13:30:06.160Z,96736.31
2018-04-12T13:32:33.676Z,96742.09
2018-04-12T13:35:04.014Z,96736.68
2018-04-12T13:37:31.568Z,96736.70
2018-04-12T13:39:59.121Z,96732.53
2018-04-12T13:42:26.686Z,96728.09
2018-04-12T13:44:54.163Z,96729.41
2018-04-12T13:47:21.726Z,96724.15
2018-04-12T13:49:49.203Z,96722.16
2018-04-12T13:52:16.674Z,96727.03
2018-04-12T13:54:44.370Z,96732.98
2018-04-12T13:57:11.856Z,96727.72
2018-04-12T13:59:39.345Z,96734.53
2018-04-12T14:02:06.836Z,96727.26
2018-04-12T14:04:34.324Z,96727.06
2018-04-12T14:07:01.822Z,96721.52
2018-04-12T14:09:29.325Z,96715.83
2018-04-12T14:11:56.815Z,96713.88
2018-04-12T14:14:24.285Z,96709.50
2018-04-12T14:16:51.772Z,96711.35
2018-04-12T14:19:19.252Z,96706.55
2018-04-12T14:21:46.740Z,96717.89
2018-04-12T14:24:19.437Z,96717.31
2018-04-12T14:26:54.397Z,96723.01
2018-04-12T14:29:24.192Z,96726.41
2018-04-12T14:31:51.783Z,96721.66
2018-04-12T14:34:19.494Z,96716.39
2018-04-12T14:36:47.055Z,96719.36
2018-04-12T14:39:14.800Z,96718.97
2018-04-12T14:41:42.331Z,96720.02
2018-04-12T14:44:10.049Z,96712.66
2018-04-12T14:46:37.707Z,96719.93
2018-04-12T14:49:05.218Z,96720.64
2018-04-12T14:51:32.707Z,96716.06
2018-04-12T14:54:00.254Z,96712.58
2018-04-12T14:56:28.427Z,96718.78
2018-04-12T14:58:55.937Z,96705.59
2018-04-12T15:01:23.477Z,96706.92
2018-04-12T15:03:50.987Z,96706.63
2018-04-12T15:06:18.551Z,96708.14
2018-04-12T15:08:46.037Z,96708.12
2018-04-12T15:11:13.548Z,96708.92
2018-04-12T15:13:41.021Z,96706.40
2018-04-12T15:16:08.515Z,96710.66
2018-04-12T15:18:36.002Z,96701.50
2018-04-12T15:21:03.476Z,96698.91
2018-04-12T15:23:31.065Z,96701.04
2018-04-12T15:25:58.565Z,96697.95
2018-04-12T15:28:26.071Z,96699.55
2018-04-12T15:30:53.718Z,96694.98
2018-04-12T15:33:21.192Z,96701.27
2018-04-12T15:35:49.817Z,96699.74
2018-04-12T15:38:17.294Z,96698.80
2018-04-12T15:40:44.776Z,96699.88
2018-04-12T15:43:12.404Z,96709.41
2018-04-12T15:45:41.120Z,96706.63
2018-04-12T15:48:08.596Z,96703.84
2018-04-12T15:50:36.074Z,96705.43
2018-04-12T15:53:03.585Z,96700.36
2018-04-12T15:55:31.074Z,96708.20
2018-04-12T15:57:58.573Z,96711.73
2018-04-12T16:00:26.068Z,96712.16
2018-04-12T16:02:53.575Z,96712.39
2018-04-12T16:05:21.222Z,96707.95
2018-04-12T16:07:48.740Z,96698.48
2018-04-12T16:10:16.243Z,96695.16
2018-04-12T16:12:43.724Z,96708.84
2018-04-12T16:15:11.211Z,96703.97
2018-04-12T16:17:38.698Z,96711.48
2018-04-12T16:20:06.204Z,96720.03
2018-04-12T16:22:33.745Z,96722.15
2018-04-12T16:25:01.441Z,96712.16
2018-04-12T16:27:28.927Z,96708.61
2018-04-12T16:29:56.448Z,96717.33
2018-04-12T16:32:23.997Z,96713.73
2018-04-12T16:34:51.480Z,96717.41
2018-04-12T16:37:18.977Z,96718.48
2018-04-12T16:39:46.561Z,96724.70
2018-04-12T16:42:14.049Z,96721.01
2018-04-12T16:44:41.630Z,96728.36
2018-04-12T16:47:09.224Z,96717.98
2018-04-12T16:49:36.778Z,96723.89
2018-04-12T16:52:04.489Z,96721.34
2018-04-12T16:54:31.998Z,96721.51
2018-04-12T16:56:59.518Z,96719.89
2018-04-12T16:59:27.018Z,96723.80
2018-04-12T17:01:54.521Z,96719.52
2018-04-12T17:04:22.004Z,96714.52
2018-04-12T17:06:49.605Z,96720.44
2018-04-12T17:09:17.091Z,96719.83
2018-04-12T17:11:44.574Z,96720.45
2018-04-12T17:14:12.149Z,96716.61
2018-04-12T17:16:39.645Z,96713.84
2018-04-12T17:19:07.418Z,96720.44
2018-04-12T17:21:34.955Z,96716.95
2018-04-12T17:24:02.450Z,96717.08
2018-04-12T17:26:29.938Z,96715.98
2018-04-12T17:28:57.455Z,96712.50
2018-04-12T17:31:24.942Z,96709.50
2018-04-12T17:33:52.484Z,96712.86
2018-04-12T17:36:19.964Z,96714.52
2018-04-12T17:38:47.693Z,96709.53
2018-04-12T17:41:15.190Z,96710.75
2018-04-12T17:43:42.690Z,96701.66
2018-04-12T17:46:10.331Z,96700.73
2018-04-12T17:48:37.922Z,96699.92
2018-04-12T17:51:05.419Z,96703.86
2018-04-12T17:53:32.911Z,96697.92
2018-04-12T17:56:00.471Z,96694.29
2018-04-12T17:58:30.016Z,96705.09
2018-04-12T18:00:57.529Z,96700.28
2018-04-12T18:03:25.024Z,96711.08
2018-04-12T18:05:52.519Z,96706.19
2018-04-12T18:08:20.099Z,96710.69
2018-04-12T18:10:47.578Z,96714.98
2018-04-12T18:13:15.061Z,96722.78
2018-04-12T18:15:42.583Z,96725.67
2018-04-12T18:18:10.057Z,96731.52
2018-04-12T18:20:37.550Z,96731.52
2018-04-12T18:23:06.475Z,96728.89
2018-04-12T18:25:34.269Z,96733.83
2018-04-12T18:28:01.766Z,96738.74
2018-04-12T18:30:29.327Z,96749.04
2018-04-12T18:32:56.814Z,96746.32
2018-04-12T18:35:24.345Z,96756.30
2018-04-12T18:37:51.834Z,96768.67
2018-04-12T18:40:19.650Z,96771.73
2018-04-12T18:42:47.160Z,96775.64
2018-04-12T18:45:14.706Z,96777.45
2018-04-12T18:47:42.185Z,96780.38
2018-04-12T18:50:09.719Z,96778.41
2018-04-12T18:52:37.294Z,96788.78
2018-04-12T18:55:04.812Z,96787.55
2018-04-12T18:57:32.532Z,96786.70
2018-04-12T19:00:00.037Z,96798.67
2018-04-12T19:02:27.714Z,96796.47
2018-04-12T19:04:55.322Z,96792.67
2018-04-12T19:07:22.870Z,96800.81
2018-04-12T19:09:50.371Z,96801.26
2018-04-12T19:12:17.952Z,96799.98
2018-04-12T19:14:45.505Z,96805.49
2018-04-12T19:17:13.074Z,96811.23
2018-04-12T19:19:40.705Z,96812.46
2018-04-12T19:22:08.216Z,96809.56
2018-04-12T19:24:35.700Z,96811.23
2018-04-12T19:27:03.213Z,96808.19
2018-04-12T19:29:30.798Z,96806.99
2018-04-12T19:31:59.258Z,96806.83
2018-04-12T19:34:26.893Z,96803.19
2018-04-12T19:36:54.406Z,96804.92
2018-04-12T19:39:21.977Z,96804.02
2018-04-12T19:41:49.571Z,96803.38
2018-04-12T19:44:17.115Z,96803.17
2018-04-12T19:46:44.617Z,96801.26
2018-04-12T19:49:12.333Z,96799.66
2018-04-12T19:51:39.828Z,96798.17
2018-04-12T19:54:07.395Z,96800.11
2018-04-12T19:56:34.978Z,96807.69
2018-04-12T19:59:02.477Z,96801.89
2018-04-12T20:01:29.975Z,96794.40
2018-04-12T20:03:57.590Z,96805.95
2018-04-12T20:06:25.299Z,96798.57
2018-04-12T20:08:52.792Z,96794.89
2018-04-12T20:11:21.151Z,96792.18
2018-04-12T20:13:48.745Z,96789.86
2018-04-12T20:16:17.710Z,96790.92
2018-04-12T20:18:45.644Z,96790.38
2018-04-12T20:21:13.592Z,96788.20
2018-04-12T20:23:41.199Z,96790.04
2018-04-12T20:26:10.489Z,96785.86
2018-04-12T20:28:38.568Z,96776.78
2018-04-12T20:31:06.237Z,96783.39
2018-04-12T20:33:34.293Z,96785.13
2018-04-12T20:36:01.895Z,96792.56
2018-04-12T20:38:33.353Z,96786.27
2018-04-12T20:41:08.879Z,96793.23
2018-04-12T20:43:53.242Z,96801.89
2018-04-12T20:46:22.653Z,96798.00
2018-04-12T20:48:52.997Z,96796.38
2018-04-12T20:51:22.443Z,96799.44
2018-04-12T20:53:49.921Z,96801.83
2018-04-12T20:56:17.635Z,96795.35
2018-04-12T20:58:45.133Z,96801.69
2018-04-12T21:01:12.642Z,96800.25
2018-04-12T21:03:40.133Z,96797.66
2018-04-12T21:06:07.678Z,96790.63
2018-04-12T21:08:35.842Z,96793.08
2018-04-12T21:11:03.376Z,96802.41
2018-04-12T21:13:30.869Z,96791.41
2018-04-12T21:15:58.366Z,96791.08
2018-04-12T21:18:25.847Z,96791.41
2018-04-12T21:20:53.365Z,96792.16
2018-04-12T21:23:20.851Z,96796.62
2018-04-12T21:25:48.399Z,96789.04
2018-04-12T21:28:15.890Z,96794.33
2018-04-12T21:30:43.469Z,96797.87
2018-04-12T21:33:10.982Z,96798.88
2018-04-12T21:35:38.552Z,96801.17
2018-04-12T21:38:06.075Z,96797.42
2018-04-12T21:40:33.604Z,96798.09
2018-04-12T21:43:01.137Z,96792.77
2018-04-12T21:45:28.644Z,96794.25
2018-04-12T21:47:56.146Z,96798.47
2018-04-12T21:50:23.670Z,96797.31
2018-04-12T21:52:51.157Z,96793.05
2018-04-12T21:55:18.657Z,96800.71
2018-04-12T21:57:46.159Z,96801.05
2018-04-12T22:00:13.653Z,96804.22
2018-04-12T22:02:41.153Z,96806.38
2018-04-12T22:05:08.665Z,96797.09
2018-04-12T22:07:36.300Z,96799.95
2018-04-12T22:10:03.816Z,96802.98
2018-04-12T22:12:31.310Z,96798.59
2018-04-12T22:14:58.823Z,96803.73
2018-04-12T22:17:26.370Z,96796.06
2018-04-12T22:19:53.850Z,96797.06
2018-04-12T22:22:21.450Z,96803.09
2018-04-12T22:24:48.945Z,96798.12
2018-04-12T22:27:16.487Z,96799.81
2018-04-12T22:29:43.981Z,96804.70
2018-04-12T22:32:11.520Z,96806.64
2018-04-12T22:34:39.070Z,96809.27
2018-04-12T22:37:06.578Z,96809.62
2018-04-12T22:39:34.076Z,96806.05
2018-04-12T22:42:01.583Z,96808.33
2018-04-12T22:44:29.090Z,96804.86
2018-04-12T22:46:56.682Z,96809.68
2018-04-12T22:49:24.285Z,96805.48
2018-04-12T22:51:51.792Z,96811.56
2018-04-12T22:54:19.302Z,96814.26
2018-04-12T22:56:46.793Z,96813.11
2018-04-12T22:59:14.280Z,96816.41
2018-04-12T23:01:41.778Z,96824.11
2018-04-12T23:04:09.247Z,96821.99
2018-04-12T23:06:36.820Z,96821.14
2018-04-12T23:09:04.310Z,96824.84
2018-04-12T23:11:31.804Z,96830.48
2018-04-12T23:13:59.394Z,96832.87
2018-04-12T23:16:26.909Z,96831.70
2018-04-12T23:18:54.447Z,96831.94
2018-04-12T23:21:21.936Z,96835.17
2018-04-12T23:23:49.435Z,96832.42
2018-04-12T23:26:16.949Z,96835.83
2018-04-12T23:28:44.490Z,96839.55
2018-04-12T23:31:11.980Z,96841.95
2018-04-12T23:33:39.503Z,96845.50
2018-04-12T23:36:07.072Z,96844.09
2018-04-12T23:38:34.598Z,96844.15
2018-04-12T23:41:02.092Z,96844.63
2018-04-12T23:43:29.679Z,96849.46
2018-04-12T23:45:57.195Z,96860.75
2018-04-12T23:48:24.735Z,96858.77
2018-04-12T23:50:52.235Z,96856.23
2018-04-12T23:53:19.716Z,96863.08
2018-04-12T23:55:47.292Z,96858.94
2018-04-12T23:58:14.797Z,96859.94
